createdAt,value
2018-05-26T00:01:29.507Z,20.75
2018-05-26T00:03:59.837Z,19.00
2018-05-26T00:06:36.421Z,18.25
2018-05-26T00:09:08.580Z,20.00
2018-05-26T00:11:45.980Z,20.00
2018-05-26T00:14:16.969Z,20.50
2018-05-26T00:16:47.850Z,19.75
2018-05-26T00:19:18.863Z,20.75
2018-05-26T00:21:50.056Z,18.50
2018-05-26T00:24:28.518Z,17.75
2018-05-26T00:27:00.300Z,18.25
2018-05-26T00:29:46.936Z,20.50
2018-05-26T00:32:19.751Z,19.75
2018-05-26T00:34:51.389Z,20.00
2018-05-26T00:37:21.879Z,19.75
2018-05-26T00:39:52.348Z,18.75
2018-05-26T00:42:25.350Z,19.75
2018-05-26T00:44:55.860Z,16.50
2018-05-26T00:50:05.830Z,19.75
2018-05-26T00:52:36.189Z,20.00
2018-05-26T00:55:07.558Z,18.50
2018-05-26T00:57:38.524Z,19.00
2018-05-26T01:00:10.189Z,16.50
2018-05-26T01:02:47.873Z,18.75
2018-05-26T01:05:20.631Z,17.00
2018-05-26T01:07:51.476Z,18.75
2018-05-26T01:10:22.137Z,18.75
2018-05-26T01:12:54.727Z,16.75
2018-05-26T01:15:44.608Z,18.00
2018-05-26T01:18:17.761Z,19.25
2018-05-26T01:20:48.696Z,17.50
2018-05-26T01:23:26.520Z,20.25
2018-05-26T01:26:12.410Z,18.00
2018-05-26T01:28:44.614Z,18.25
2018-05-26T01:31:18.403Z,19.25
2018-05-26T01:33:52.120Z,18.75
2018-05-26T01:36:28.029Z,18.50
2018-05-26T01:39:06.326Z,21.00
2018-05-26T01:41:37.877Z,17.75
2018-05-26T01:44:10.037Z,18.75
2018-05-26T01:46:41.428Z,20.50
2018-05-26T01:49:17.549Z,21.00
2018-05-26T01:51:48.630Z,19.75
2018-05-26T01:54:20.879Z,20.75
2018-05-26T01:56:52.097Z,20.25
2018-05-26T01:59:24.302Z,18.75
2018-05-26T02:01:55.095Z,20.75
2018-05-26T02:04:25.578Z,21.00
2018-05-26T02:06:55.963Z,19.75
2018-05-26T02:09:28.629Z,21.00
2018-05-26T02:12:01.817Z,19.50
2018-05-26T02:14:43.299Z,19.50
2018-05-26T02:17:18.459Z,19.00
2018-05-26T02:19:49.764Z,20.00
2018-05-26T02:22:20.447Z,20.00
2018-05-26T02:24:51.210Z,21.00
2018-05-26T02:27:21.874Z,20.75
2018-05-26T02:29:55.737Z,20.50
2018-05-26T02:32:26.460Z,20.75
2018-05-26T02:34:56.826Z,19.75
2018-05-26T02:37:28.801Z,21.00
2018-05-26T02:40:07.086Z,20.00
2018-05-26T02:42:39.168Z,21.00
2018-05-26T02:45:09.897Z,19.00
2018-05-26T02:47:47.316Z,21.00
2018-05-26T02:50:19.216Z,20.75
2018-05-26T02:52:52.618Z,19.75
2018-05-26T02:55:25.197Z,19.50
2018-05-26T02:57:57.267Z,20.75
2018-05-26T03:00:29.005Z,21.00
2018-05-26T03:03:05.673Z,19.00
2018-05-26T03:05:41.733Z,17.00
2018-05-26T03:08:17.286Z,17.25
2018-05-26T03:10:53.324Z,19.00
2018-05-26T03:13:28.953Z,19.00
2018-05-26T03:16:00.435Z,18.00
2018-05-26T03:18:32.701Z,19.25
2018-05-26T03:21:05.243Z,19.25
2018-05-26T03:23:38.385Z,18.00
2018-05-26T03:26:09.301Z,17.50
2018-05-26T03:28:40.741Z,18.00
2018-05-26T03:31:12.211Z,19.75
2018-05-26T03:33:42.731Z,18.00
2018-05-26T03:36:17.554Z,19.50
2018-05-26T03:41:29.348Z,18.50
2018-05-26T03:43:59.741Z,19.00
2018-05-26T03:46:30.511Z,17.75
2018-05-26T03:49:01.291Z,18.25
2018-05-26T03:51:32.234Z,15.50
2018-05-26T03:54:02.596Z,18.25
2018-05-26T04:00:52.771Z,19.50
2018-05-26T04:03:23.503Z,20.50
2018-05-26T04:05:55.344Z,17.25
2018-05-26T04:08:26.424Z,19.00
2018-05-26T04:10:57.647Z,18.00
2018-05-26T04:13:28.210Z,18.25
2018-05-26T04:16:00.393Z,17.75
2018-05-26T04:18:35.824Z,17.25
2018-05-26T04:21:06.740Z,17.00
2018-05-26T04:23:41.402Z,16.75
2018-05-26T04:26:14.407Z,15.25
2018-05-26T04:28:46.722Z,16.25
2018-05-26T04:31:17.518Z,16.00
2018-05-26T04:33:48.160Z,17.25
2018-05-26T04:36:19.582Z,17.50
2018-05-26T04:38:50.123Z,17.00
2018-05-26T04:41:20.554Z,17.00
2018-05-26T04:43:54.497Z,16.75
2018-05-26T04:46:25.686Z,18.50
2018-05-26T04:48:58.491Z,17.75
2018-05-26T04:51:30.928Z,16.00
2018-05-26T04:54:04.949Z,17.00
2018-05-26T04:56:35.962Z,16.50
2018-05-26T04:59:07.524Z,16.75
2018-05-26T05:01:38.523Z,17.00
2018-05-26T05:04:09.072Z,17.00
2018-05-26T05:06:39.761Z,15.75
2018-05-26T05:09:12.724Z,17.00
2018-05-26T05:11:44.907Z,17.25
2018-05-26T05:14:15.379Z,16.50
2018-05-26T05:16:47.221Z,16.00
2018-05-26T05:19:17.988Z,16.25
2018-05-26T05:21:48.858Z,16.25
2018-05-26T05:24:19.195Z,18.75
2018-05-26T05:26:49.579Z,16.25
2018-05-26T05:29:20.139Z,16.25
2018-05-26T05:31:53.477Z,17.00
2018-05-26T05:34:24.929Z,16.25
2018-05-26T05:36:56.139Z,16.25
2018-05-26T05:39:26.761Z,16.25
2018-05-26T05:41:58.434Z,15.25
2018-05-26T05:44:28.960Z,15.75
2018-05-26T05:47:00.636Z,16.00
2018-05-26T05:49:33.446Z,16.00
2018-05-26T05:52:04.387Z,16.25
2018-05-26T05:54:34.869Z,16.75
2018-05-26T05:57:06.314Z,15.25
2018-05-26T05:59:36.786Z,17.50
2018-05-26T06:02:07.489Z,14.75
2018-05-26T06:04:38.521Z,14.25
2018-05-26T06:07:11.924Z,14.25
2018-05-26T06:09:43.423Z,15.75
2018-05-26T06:12:15.058Z,15.25
2018-05-26T06:17:26.997Z,14.75
2018-05-26T06:20:05.037Z,14.25
2018-05-26T06:22:36.840Z,13.50
2018-05-26T06:25:07.507Z,13.75
2018-05-26T06:27:38.305Z,13.75
2018-05-26T06:30:19.244Z,13.50
2018-05-26T06:33:01.132Z,13.25
2018-05-26T06:35:32.723Z,13.50
2018-05-26T06:38:26.208Z,15.50
2018-05-26T06:41:01.633Z,13.50
2018-05-26T06:43:33.113Z,12.75
2018-05-26T06:46:11.483Z,14.75
2018-05-26T06:48:44.721Z,14.75
2018-05-26T06:51:16.044Z,13.50
2018-05-26T06:53:47.865Z,13.00
2018-05-26T06:56:20.794Z,14.25
2018-05-26T06:58:52.017Z,12.25
2018-05-26T07:01:24.137Z,13.00
2018-05-26T07:03:55.290Z,12.00
2018-05-26T07:06:29.306Z,13.25
2018-05-26T07:09:01.746Z,13.25
2018-05-26T07:11:32.942Z,13.00
2018-05-26T07:14:03.597Z,13.25
2018-05-26T07:16:34.826Z,13.50
2018-05-26T07:19:10.262Z,13.00
2018-05-26T07:21:43.381Z,12.00
2018-05-26T07:24:17.569Z,12.00
2018-05-26T07:26:49.551Z,14.00
2018-05-26T07:29:24.611Z,12.25
2018-05-26T07:31:58.190Z,13.00
2018-05-26T07:34:30.361Z,12.50
2018-05-26T07:37:02.979Z,13.25
2018-05-26T07:39:34.462Z,12.25
2018-05-26T07:42:05.750Z,12.00
2018-05-26T07:44:36.702Z,11.75
2018-05-26T07:47:08.119Z,11.25
2018-05-26T07:49:38.687Z,12.75
2018-05-26T07:52:09.876Z,14.00
2018-05-26T07:54:42.516Z,13.25
2018-05-26T07:57:14.598Z,13.00
2018-05-26T07:59:46.220Z,13.00
2018-05-26T08:02:17.335Z,14.25
2018-05-26T08:05:04.701Z,13.75
2018-05-26T08:07:35.801Z,12.75
2018-05-26T08:10:16.870Z,13.75
2018-05-26T08:12:49.704Z,13.00
2018-05-26T08:15:23.877Z,12.00
2018-05-26T08:17:55.464Z,13.00
2018-05-26T08:20:30.089Z,13.00
2018-05-26T08:23:03.299Z,13.00
2018-05-26T08:25:34.102Z,12.25
2018-05-26T08:28:05.382Z,10.00
2018-05-26T08:30:41.149Z,12.00
2018-05-26T08:33:20.109Z,12.25
2018-05-26T08:35:51.768Z,12.00
2018-05-26T08:38:23.152Z,11.75
2018-05-26T08:40:54.768Z,10.00
2018-05-26T08:43:25.462Z,12.75
2018-05-26T08:46:03.317Z,11.75
2018-05-26T08:48:41.541Z,12.50
2018-05-26T08:51:15.059Z,11.00
2018-05-26T08:53:50.604Z,11.25
2018-05-26T08:56:25.756Z,11.50
2018-05-26T08:59:04.030Z,11.00
2018-05-26T09:01:37.142Z,10.25
2018-05-26T09:04:08.415Z,12.00
2018-05-26T09:06:39.343Z,11.00
2018-05-26T09:09:12.284Z,11.00
2018-05-26T09:11:45.136Z,10.00
2018-05-26T09:14:18.100Z,11.00
2018-05-26T09:16:55.556Z,11.00
2018-05-26T09:19:31.221Z,11.00
2018-05-26T09:22:02.408Z,10.00
2018-05-26T09:24:36.406Z,11.00
2018-05-26T09:27:22.722Z,10.25
2018-05-26T09:32:55.970Z,11.00
2018-05-26T09:35:27.759Z,11.50
2018-05-26T09:37:59.102Z,11.00
2018-05-26T09:40:33.483Z,10.75
2018-05-26T09:43:05.033Z,10.25
2018-05-26T09:45:43.140Z,11.75
2018-05-26T09:48:15.086Z,10.50
2018-05-26T09:50:47.505Z,10.00
2018-05-26T09:53:21.185Z,11.25
2018-05-26T09:56:08.911Z,9.00
2018-05-26T09:58:44.321Z,10.75
2018-05-26T10:01:21.184Z,9.50
2018-05-26T10:03:53.078Z,10.50
2018-05-26T10:06:27.015Z,9.75
2018-05-26T10:09:14.158Z,10.50
2018-05-26T10:11:44.977Z,10.50
2018-05-26T10:14:17.708Z,10.00
2018-05-26T10:16:54.047Z,9.00
2018-05-26T10:19:30.106Z,9.25
2018-05-26T10:22:00.716Z,8.75
2018-05-26T10:24:32.017Z,9.00
2018-05-26T10:27:04.897Z,10.00
2018-05-26T10:29:37.475Z,10.25
2018-05-26T10:32:13.691Z,11.50
2018-05-26T10:35:01.689Z,9.50
2018-05-26T10:37:34.255Z,9.50
2018-05-26T10:40:08.949Z,14.00
2018-05-26T10:42:42.024Z,9.50
2018-05-26T10:45:15.991Z,9.25
2018-05-26T10:48:02.583Z,9.75
2018-05-26T10:50:41.023Z,10.25
2018-05-26T10:53:11.912Z,10.00
2018-05-26T10:55:53.849Z,10.00
2018-05-26T10:58:26.383Z,10.00
2018-05-26T11:03:46.995Z,10.00
2018-05-26T11:06:22.695Z,10.00
2018-05-26T11:08:55.599Z,10.00
2018-05-26T11:11:26.527Z,11.00
2018-05-26T11:13:57.379Z,10.50
2018-05-26T11:16:29.491Z,8.75
2018-05-26T11:21:40.026Z,9.00
2018-05-26T11:24:10.975Z,8.75
2018-05-26T11:26:46.866Z,9.50
2018-05-26T11:29:18.694Z,9.25
2018-05-26T11:31:56.768Z,9.75
2018-05-26T11:34:29.367Z,9.50
2018-05-26T11:37:01.856Z,11.00
2018-05-26T11:39:38.974Z,10.75
2018-05-26T11:42:10.599Z,9.25
2018-05-26T11:44:41.343Z,9.75
2018-05-26T11:47:14.808Z,10.00
2018-05-26T11:49:47.337Z,11.25
2018-05-26T11:52:19.087Z,10.50
2018-05-26T11:54:49.894Z,9.75
2018-05-26T11:57:20.835Z,9.75
2018-05-26T11:59:55.926Z,10.50
2018-05-26T12:02:27.272Z,10.00
2018-05-26T12:04:58.883Z,12.00
2018-05-26T12:07:32.608Z,9.25
2018-05-26T12:10:04.752Z,10.00
2018-05-26T12:12:37.230Z,10.75
2018-05-26T12:15:16.777Z,10.25
2018-05-26T12:17:52.734Z,11.00
2018-05-26T12:20:23.627Z,10.50
2018-05-26T12:22:55.127Z,11.00
2018-05-26T12:25:27.081Z,10.50
2018-05-26T12:28:14.878Z,11.00
2018-05-26T12:30:46.818Z,11.75
2018-05-26T12:33:22.194Z,11.75
2018-05-26T12:35:53.836Z,11.00
2018-05-26T12:38:25.152Z,11.75
2018-05-26T12:41:15.514Z,12.00
2018-05-26T12:43:47.776Z,12.75
2018-05-26T12:46:21.653Z,14.00
2018-05-26T12:49:01.342Z,10.75
2018-05-26T12:51:32.723Z,11.50
2018-05-26T12:54:08.452Z,12.00
2018-05-26T12:56:45.815Z,10.75
2018-05-26T12:59:23.019Z,10.50
2018-05-26T13:01:58.477Z,11.75
2018-05-26T13:04:43.227Z,12.00
2018-05-26T13:07:16.782Z,10.50
2018-05-26T13:09:52.881Z,11.00
2018-05-26T13:15:12.765Z,9.50
2018-05-26T13:17:44.357Z,10.00
2018-05-26T13:20:15.691Z,10.75
2018-05-26T13:22:46.970Z,12.75
2018-05-26T13:25:17.398Z,12.00
2018-05-26T13:27:47.873Z,11.50
2018-05-26T13:30:20.616Z,13.00
2018-05-26T13:32:54.422Z,12.75
2018-05-26T13:35:26.442Z,12.00
2018-05-26T13:38:01.405Z,10.00
2018-05-26T13:40:32.982Z,10.75
2018-05-26T13:43:05.180Z,10.75
2018-05-26T13:45:35.920Z,10.50
2018-05-26T13:48:12.151Z,11.25
2018-05-26T13:50:52.046Z,12.00
2018-05-26T13:53:30.251Z,11.75
2018-05-26T13:56:02.376Z,10.75
2018-05-26T13:58:34.198Z,12.00
2018-05-26T14:01:08.460Z,11.00
2018-05-26T14:03:39.936Z,11.00
2018-05-26T14:06:20.315Z,12.25
2018-05-26T14:08:52.461Z,11.00
2018-05-26T14:11:23.280Z,11.75
2018-05-26T14:13:53.886Z,10.50
2018-05-26T14:16:25.260Z,11.00
2018-05-26T14:19:22.779Z,8.50
2018-05-26T14:21:54.345Z,11.00
2018-05-26T14:24:25.226Z,11.00
2018-05-26T14:26:56.744Z,11.00
2018-05-26T14:29:31.597Z,9.00
2018-05-26T14:32:03.072Z,10.75
2018-05-26T14:34:33.529Z,12.75
2018-05-26T14:37:09.881Z,11.75
2018-05-26T14:39:40.942Z,10.75
2018-05-26T14:42:16.142Z,10.50
2018-05-26T14:44:48.422Z,9.25
2018-05-26T14:47:20.220Z,9.00
2018-05-26T14:49:54.811Z,10.25
2018-05-26T14:52:29.445Z,9.75
2018-05-26T14:55:00.216Z,9.75
2018-05-26T15:00:10.296Z,10.00
2018-05-26T15:02:47.492Z,11.75
2018-05-26T15:05:19.153Z,10.00
2018-05-26T15:07:50.373Z,10.75
2018-05-26T15:10:20.786Z,10.50
2018-05-26T15:12:51.953Z,10.00
2018-05-26T15:15:22.683Z,12.00
2018-05-26T15:17:54.313Z,12.00
2018-05-26T15:20:26.058Z,10.75
2018-05-26T15:22:56.830Z,10.50
2018-05-26T15:25:31.147Z,10.75
2018-05-26T15:28:03.027Z,10.75
2018-05-26T15:30:35.042Z,10.50
2018-05-26T15:33:06.490Z,11.00
2018-05-26T15:35:39.313Z,11.50
2018-05-26T15:40:55.645Z,11.75
2018-05-26T15:43:27.076Z,12.00
2018-05-26T15:45:58.414Z,12.25
2018-05-26T15:48:31.879Z,10.75
2018-05-26T15:51:03.286Z,10.25
2018-05-26T15:53:34.017Z,12.00
2018-05-26T15:56:05.272Z,11.50
2018-05-26T15:58:37.150Z,10.25
2018-05-26T16:01:08.884Z,13.50
2018-05-26T16:03:39.370Z,11.75
2018-05-26T16:06:15.208Z,12.00
2018-05-26T16:08:47.413Z,10.00
2018-05-26T16:11:22.150Z,12.00
2018-05-26T16:13:53.941Z,11.00
2018-05-26T16:16:25.352Z,11.00
2018-05-26T16:18:58.026Z,10.75
2018-05-26T16:21:28.855Z,11.50
2018-05-26T16:24:00.008Z,11.00
2018-05-26T16:26:33.206Z,10.25
2018-05-26T16:29:06.086Z,11.50
2018-05-26T16:31:37.366Z,13.00
2018-05-26T16:34:12.978Z,11.75
2018-05-26T16:36:45.141Z,11.00
2018-05-26T16:39:17.818Z,11.00
2018-05-26T16:41:50.522Z,12.00
2018-05-26T16:44:20.894Z,12.00
2018-05-26T16:46:52.552Z,13.00
2018-05-26T16:49:24.708Z,12.75
2018-05-26T16:52:01.998Z,13.25
2018-05-26T16:54:36.552Z,12.75
2018-05-26T16:57:20.013Z,12.00
2018-05-26T16:59:50.758Z,14.00
2018-05-26T17:02:23.210Z,13.25
2018-05-26T17:04:56.612Z,15.00
2018-05-26T17:07:28.848Z,15.25
2018-05-26T17:12:42.508Z,16.25
2018-05-26T17:15:23.233Z,16.00
2018-05-26T17:17:55.027Z,16.00
2018-05-26T17:20:27.352Z,16.25
2018-05-26T17:23:03.375Z,15.75
2018-05-26T17:25:34.509Z,17.00
2018-05-26T17:28:06.013Z,16.50
2018-05-26T17:30:39.572Z,16.75
2018-05-26T17:33:11.320Z,16.25
2018-05-26T17:35:43.221Z,17.50
2018-05-26T17:38:15.221Z,16.75
2018-05-26T17:40:48.047Z,15.50
2018-05-26T17:43:21.292Z,17.75
2018-05-26T17:45:51.918Z,19.00
2018-05-26T17:48:30.784Z,16.00
2018-05-26T17:51:02.837Z,15.50
2018-05-26T17:53:36.671Z,15.00
2018-05-26T17:56:12.319Z,15.25
2018-05-26T17:58:44.447Z,16.50
2018-05-26T18:01:29.308Z,17.00
2018-05-26T18:04:04.701Z,17.25
2018-05-26T18:06:51.569Z,17.50
2018-05-26T18:09:30.130Z,18.25
2018-05-26T18:12:02.582Z,17.25
2018-05-26T18:14:37.170Z,17.00
2018-05-26T18:17:08.830Z,16.50
2018-05-26T18:19:41.407Z,17.25
2018-05-26T18:22:13.273Z,18.00
2018-05-26T18:24:44.043Z,18.75
2018-05-26T18:27:15.295Z,18.00
2018-05-26T18:29:48.031Z,18.00
2018-05-26T18:32:20.553Z,18.75
2018-05-26T18:34:51.088Z,18.50
2018-05-26T18:37:25.725Z,18.00
2018-05-26T18:39:56.212Z,19.00
2018-05-26T18:42:26.903Z,19.00
2018-05-26T18:45:03.427Z,18.50
2018-05-26T18:47:53.386Z,19.00
2018-05-26T18:50:25.509Z,18.75
2018-05-26T18:52:59.623Z,19.00
2018-05-26T18:55:32.123Z,17.00
2018-05-26T18:58:03.438Z,18.50
2018-05-26T19:00:35.804Z,19.00
2018-05-26T19:03:08.132Z,19.00
2018-05-26T19:05:40.685Z,19.00
2018-05-26T19:08:27.816Z,19.00
2018-05-26T19:11:01.649Z,19.00
2018-05-26T19:13:32.259Z,19.00
2018-05-26T19:16:05.161Z,19.75
2018-05-26T19:18:36.406Z,20.25
2018-05-26T19:21:07.029Z,19.00
2018-05-26T19:23:37.936Z,19.00
2018-05-26T19:26:09.179Z,19.25
2018-05-26T19:28:40.287Z,19.25
2018-05-26T19:31:12.872Z,19.00
2018-05-26T19:33:59.475Z,20.75
2018-05-26T19:36:30.357Z,19.25
2018-05-26T19:39:03.589Z,21.75
2018-05-26T19:41:38.143Z,19.00
2018-05-26T19:44:13.076Z,19.00
2018-05-26T19:46:44.746Z,19.00
2018-05-26T19:49:18.459Z,19.00
2018-05-26T19:51:51.246Z,18.75
2018-05-26T19:54:26.149Z,19.00
2018-05-26T19:56:57.789Z,19.25
2018-05-26T19:59:31.730Z,21.00
2018-05-26T20:02:02.999Z,20.00
2018-05-26T20:04:34.804Z,19.00
2018-05-26T20:07:07.546Z,20.25
2018-05-26T20:09:41.757Z,19.00
2018-05-26T20:12:15.865Z,20.75
2018-05-26T20:14:53.560Z,19.25
2018-05-26T20:17:27.956Z,19.25
2018-05-26T20:19:59.527Z,20.00
2018-05-26T20:22:30.659Z,21.00
2018-05-26T20:25:05.503Z,20.50
2018-05-26T20:27:38.265Z,20.25
2018-05-26T20:30:15.500Z,21.00
2018-05-26T20:32:53.429Z,22.00
2018-05-26T20:35:36.884Z,21.00
2018-05-26T20:38:21.952Z,21.00
2018-05-26T20:41:01.097Z,21.00
2018-05-26T20:43:35.906Z,21.00
2018-05-26T20:49:05.879Z,23.00
2018-05-26T20:51:37.521Z,22.00
2018-05-26T20:54:08.971Z,21.75
2018-05-26T20:56:39.874Z,21.50
2018-05-26T20:59:10.771Z,23.00
2018-05-26T21:01:50.727Z,21.50
2018-05-26T21:04:31.695Z,22.00
2018-05-26T21:07:03.680Z,21.75
2018-05-26T21:09:34.706Z,21.00
2018-05-26T21:12:05.821Z,22.00
2018-05-26T21:14:37.557Z,21.50
2018-05-26T21:17:09.936Z,21.75
2018-05-26T21:19:42.816Z,21.75
2018-05-26T21:22:21.715Z,22.75
2018-05-26T21:24:52.479Z,21.75
2018-05-26T21:27:25.209Z,23.00
2018-05-26T21:29:55.675Z,23.00
2018-05-26T21:32:39.876Z,24.00
2018-05-26T21:35:11.931Z,22.50
2018-05-26T21:37:43.286Z,22.75
2018-05-26T21:40:14.502Z,22.75
2018-05-26T21:42:55.916Z,21.75
2018-05-26T21:45:31.775Z,23.25
2018-05-26T21:48:03.662Z,22.75
2018-05-26T21:50:35.226Z,22.25
2018-05-26T21:53:07.535Z,21.25
2018-05-26T21:55:40.211Z,22.25
2018-05-26T21:58:14.030Z,22.25
2018-05-26T22:00:56.095Z,22.25
2018-05-26T22:03:34.691Z,21.25
2018-05-26T22:06:05.428Z,22.00
2018-05-26T22:08:40.207Z,22.00
2018-05-26T22:11:12.130Z,22.25
2018-05-26T22:13:56.946Z,21.75
2018-05-26T22:16:29.555Z,22.00
2018-05-26T22:19:01.944Z,23.00
2018-05-26T22:21:35.439Z,21.25
2018-05-26T22:24:09.845Z,23.75
2018-05-26T22:26:43.863Z,23.00
2018-05-26T22:29:16.675Z,21.75
2018-05-26T22:31:50.983Z,22.25
2018-05-26T22:34:22.553Z,22.75
2018-05-26T22:36:55.772Z,21.75
2018-05-26T22:39:27.267Z,22.00
2018-05-26T22:41:57.966Z,22.75
2018-05-26T22:44:33.135Z,22.25
2018-05-26T22:47:04.321Z,22.25
2018-05-26T22:49:35.375Z,19.75
2018-05-26T22:52:06.383Z,20.75
2018-05-26T22:54:37.866Z,21.25
2018-05-26T22:57:09.256Z,21.25
2018-05-26T22:59:40.906Z,23.00
2018-05-26T23:02:12.715Z,21.75
2018-05-26T23:04:43.514Z,21.75
2018-05-26T23:07:15.905Z,22.25
2018-05-26T23:09:47.155Z,23.25
2018-05-26T23:12:21.856Z,22.00
2018-05-26T23:14:53.434Z,21.75
2018-05-26T23:17:29.770Z,21.75
2018-05-26T23:20:12.496Z,22.25
2018-05-26T23:22:44.419Z,21.75
2018-05-26T23:25:15.463Z,22.25
2018-05-26T23:27:49.082Z,21.75
2018-05-26T23:30:19.748Z,21.75
2018-05-26T23:32:51.267Z,21.25
2018-05-26T23:35:48.194Z,23.00
2018-05-26T23:38:19.519Z,21.75
2018-05-26T23:40:51.472Z,22.25
2018-05-26T23:43:22.265Z,22.00
2018-05-26T23:46:04.654Z,21.50
2018-05-26T23:48:36.073Z,21.25
2018-05-26T23:51:07.346Z,20.75
2018-05-26T23:53:38.202Z,21.75
2018-05-26T23:56:10.554Z,21.75
2018-05-26T23:58:41.452Z,21.75
